Terminal Aerodrome Forecast
Issued by NWS

Home | Current Version | Previous Version | Text Only | Print | Product List | Glossary On
Versions: 1 2 3 4 5 6 7 8 9 10 11 12 13 14 15 16 17 18 19
000
FTUS41 KCAR 261734
TAFBHB
TAF
KBHB 261734Z 2618/2718 00000KT P6SM FEW250
     FM270900 12006KT P6SM OVC035
     FM271200 13009KT 5SM -SNPL OVC050
     FM271400 13011KT 2SM -SNPL OVC035
     FM271600 13012G19KT 2SM -RAPL OVC025=

USA.gov is the U.S. government's official web portal to all federal, state and local government web resources and services.